Time;durP1;ratioP1;P1;durP2;ratioP2;P2;SDS_P1;SDS_P2;PMS_P1;PMS_P2;Temp;Humidity;BMP_temperature;BMP_pressure;BME280_temperature;BME280_humidity;BME280_pressure;Samples;Min_cycle;Max_cycle;Signal;HPM_P1;HPM_P2
2023/07/17 00:01:47;;;;;;;4.33;3.03;;;;;;;19.58;100.00;98282.19;5006542;28;20238;-81
2023/07/17 00:04:14;;;;;;;5.53;2.80;;;;;;;19.51;100.00;98278.94;5006942;28;20203;-80
2023/07/17 00:06:40;;;;;;;5.07;3.17;;;;;;;19.49;100.00;98277.59;5006808;28;20741;-80
2023/07/17 00:09:07;;;;;;;3.80;2.87;;;;;;;19.44;100.00;98275.72;5006781;28;20621;-80
2023/07/17 00:11:34;;;;;;;5.13;2.73;;;;;;;19.49;100.00;98289.19;5006638;28;20250;-80
2023/07/17 00:14:01;;;;;;;5.70;2.93;;;;;;;19.52;99.76;98285.97;5005574;28;20204;-80
2023/07/17 00:16:27;;;;;;;4.00;2.50;;;;;;;19.58;93.56;98283.25;5005759;28;20226;-80
2023/07/17 00:18:53;;;;;;;5.10;2.93;;;;;;;19.68;91.39;98284.84;5005975;28;20322;-80
2023/07/17 00:21:20;;;;;;;4.63;2.37;;;;;;;19.73;88.71;98283.25;5007297;28;20603;-80
2023/07/17 00:23:47;;;;;;;4.27;2.77;;;;;;;19.73;89.56;98292.94;5002433;28;20207;-75
2023/07/17 00:26:13;;;;;;;4.00;3.00;;;;;;;19.71;90.78;98288.91;4995894;28;20258;-75
2023/07/17 00:28:40;;;;;;;2.97;2.47;;;;;;;19.75;90.01;98291.88;4995815;28;20238;-75
2023/07/17 00:31:07;;;;;;;3.63;2.47;;;;;;;19.86;86.10;98274.59;4995789;28;20207;-75
2023/07/17 00:33:33;;;;;;;5.80;2.63;;;;;;;19.89;89.37;98272.16;4995765;28;20257;-75
2023/07/17 00:36:00;;;;;;;3.03;2.50;;;;;;;19.93;85.51;98265.13;4995701;28;20207;-75
2023/07/17 00:38:26;;;;;;;5.20;2.40;;;;;;;19.94;88.42;98261.34;4995491;28;20310;-75
2023/07/17 00:40:52;;;;;;;4.77;2.40;;;;;;;19.93;87.50;98269.75;4995577;28;20211;-75
2023/07/17 00:43:19;;;;;;;4.27;2.40;;;;;;;19.95;89.37;98284.56;4995500;28;20223;-75
2023/07/17 00:45:46;;;;;;;3.23;2.07;;;;;;;19.94;88.68;98276.75;4995515;28;20212;-75
2023/07/17 00:48:12;;;;;;;4.47;2.30;;;;;;;19.96;84.87;98270.00;4995263;28;20247;-75
2023/07/17 00:50:39;;;;;;;4.43;2.60;;;;;;;20.05;84.09;98267.53;4995406;28;20195;-75
2023/07/17 00:53:08;;;;;;;4.30;2.60;;;;;;;20.18;80.05;98273.19;4995356;28;20569;-75
2023/07/17 00:55:36;;;;;;;5.53;2.60;;;;;;;20.34;78.32;98271.25;4994747;28;20213;-75
2023/07/17 00:58:03;;;;;;;3.57;2.37;;;;;;;20.37;78.09;98268.81;4995318;28;20211;-75
2023/07/17 01:00:30;;;;;;;4.20;2.50;;;;;;;20.40;77.59;98275.56;4995215;28;20203;-75
2023/07/17 01:02:57;;;;;;;3.87;2.60;;;;;;;20.47;77.02;98279.56;4993932;28;20235;-75
2023/07/17 01:05:23;;;;;;;3.60;2.40;;;;;;;20.42;77.06;98276.06;4994847;28;20218;-74
2023/07/17 01:07:49;;;;;;;4.17;2.50;;;;;;;20.42;78.08;98278.75;4994744;28;20544;-74
2023/07/17 01:10:16;;;;;;;3.30;2.50;;;;;;;20.41;77.82;98283.38;4994672;28;20215;-74
2023/07/17 01:12:42;;;;;;;4.13;2.63;;;;;;;20.39;76.73;98284.75;4994966;28;20574;-74
2023/07/17 01:15:09;;;;;;;4.43;2.60;;;;;;;20.40;77.37;98280.94;4994726;28;20207;-74
2023/07/17 01:17:35;;;;;;;4.77;2.23;;;;;;;20.39;79.32;98277.44;4994664;28;20212;-74
2023/07/17 01:20:02;;;;;;;4.30;2.33;;;;;;;20.40;76.98;98275.56;4994841;28;20714;-74
2023/07/17 01:22:36;;;;;;;5.20;2.40;;;;;;;20.46;76.65;98279.84;4994840;28;20563;-74
2023/07/17 01:25:03;;;;;;;3.97;2.40;;;;;;;20.48;77.12;98299.28;4994909;28;20230;-74
2023/07/17 01:27:29;;;;;;;2.67;2.20;;;;;;;20.42;77.69;98303.91;4994784;28;20302;-74
2023/07/17 01:29:55;;;;;;;4.43;2.30;;;;;;;20.40;77.55;98307.97;4994375;28;20231;-74
2023/07/17 01:32:22;;;;;;;3.83;2.60;;;;;;;20.36;78.74;98299.59;4994732;28;20222;-74
2023/07/17 01:34:48;;;;;;;3.23;2.50;;;;;;;20.30;79.99;98297.97;4995191;28;20662;-74
2023/07/17 01:37:15;;;;;;;3.93;2.43;;;;;;;20.33;77.81;98293.91;4994309;28;20566;-74
2023/07/17 01:39:41;;;;;;;3.77;2.40;;;;;;;20.28;77.68;98294.75;4994524;28;20230;-74
2023/07/17 01:42:08;;;;;;;4.07;2.70;;;;;;;20.27;77.30;98293.16;4994527;28;20231;-74
2023/07/17 01:44:34;;;;;;;2.97;2.20;;;;;;;20.26;77.94;98296.13;4994186;28;20736;-75
2023/07/17 01:47:00;;;;;;;3.60;2.47;;;;;;;20.25;78.23;98284.50;4994471;28;20602;-75
2023/07/17 01:49:27;;;;;;;3.57;2.20;;;;;;;20.34;78.02;98290.16;4994135;28;20610;-75
2023/07/17 01:51:53;;;;;;;6.40;2.53;;;;;;;20.28;77.05;98283.13;4994022;28;20569;-75
2023/07/17 01:54:19;;;;;;;3.20;2.27;;;;;;;20.20;80.24;98289.09;4994118;28;20693;-75
2023/07/17 01:56:46;;;;;;;5.17;2.13;;;;;;;20.17;80.76;98297.78;4994388;28;20577;-75
2023/07/17 01:59:12;;;;;;;3.33;2.37;;;;;;;20.09;81.71;98301.84;4994212;28;20238;-75
2023/07/17 02:01:38;;;;;;;2.90;2.40;;;;;;;20.06;82.02;98306.91;4994176;28;20211;-75
2023/07/17 02:04:05;;;;;;;3.80;2.60;;;;;;;20.04;83.42;98295.59;4993947;28;20574;-75
2023/07/17 02:06:31;;;;;;;3.00;2.23;;;;;;;20.07;82.85;98303.16;5005561;28;20297;-80
2023/07/17 02:08:58;;;;;;;3.87;2.27;;;;;;;20.09;84.30;98296.44;5003662;28;20233;-80
2023/07/17 02:11:27;;;;;;;5.30;2.53;;;;;;;20.07;81.36;98289.66;5006415;28;20235;-80
2023/07/17 02:13:53;;;;;;;5.90;2.50;;;;;;;20.07;82.52;98295.06;5005201;28;20290;-80
2023/07/17 02:16:19;;;;;;;2.67;2.30;;;;;;;20.16;81.38;98288.84;5005336;28;20211;-80
2023/07/17 02:18:46;;;;;;;3.67;2.17;;;;;;;20.13;80.42;98286.72;5004660;28;20227;-80
2023/07/17 02:21:12;;;;;;;4.77;2.20;;;;;;;20.13;82.04;98300.22;5005349;28;20203;-80
2023/07/17 02:23:38;;;;;;;2.80;2.27;;;;;;;20.08;86.75;98300.19;5005515;28;20231;-79
2023/07/17 02:26:06;;;;;;;2.70;2.30;;;;;;;20.07;84.53;98297.78;5005251;28;20207;-79
2023/07/17 02:28:33;;;;;;;3.80;2.00;;;;;;;20.06;85.90;98298.81;5004260;28;20254;-79
2023/07/17 02:30:59;;;;;;;5.33;2.33;;;;;;;19.98;87.51;98305.59;5005673;28;20207;-79
2023/07/17 02:33:25;;;;;;;2.53;1.93;;;;;;;19.90;87.53;98303.44;5006669;28;20209;-79
2023/07/17 02:35:52;;;;;;;4.27;2.23;;;;;;;19.87;88.12;98317.50;5005209;28;20210;-79
2023/07/17 02:38:18;;;;;;;4.27;2.27;;;;;;;19.84;88.19;98306.44;5004186;28;20231;-79
2023/07/17 02:40:45;;;;;;;3.90;2.53;;;;;;;19.86;86.56;98312.38;5005737;28;20211;-79
2023/07/17 02:43:11;;;;;;;3.83;2.40;;;;;;;19.85;87.36;98316.16;5004438;28;20227;-79
2023/07/17 02:45:38;;;;;;;2.67;2.33;;;;;;;19.80;87.89;98319.66;5005279;28;20294;-79
2023/07/17 02:48:05;;;;;;;3.90;2.30;;;;;;;19.76;88.21;98315.09;5005310;28;20207;-79
2023/07/17 02:50:31;;;;;;;6.00;2.30;;;;;;;19.72;88.62;98324.78;5004844;28;20199;-79
2023/07/17 02:52:58;;;;;;;6.40;2.37;;;;;;;19.63;89.64;98323.72;5005492;28;20570;-79
2023/07/17 02:55:24;;;;;;;3.53;2.10;;;;;;;19.64;90.16;98332.34;5004499;28;20207;-79
2023/07/17 02:57:51;;;;;;;4.23;2.33;;;;;;;19.62;90.70;98331.00;5004838;28;20207;-79
2023/07/17 03:00:18;;;;;;;5.20;2.30;;;;;;;19.60;91.12;98327.75;5005969;28;20218;-79
2023/07/17 03:02:46;;;;;;;5.33;2.67;;;;;;;19.56;89.13;98329.38;5005108;28;20231;-79
2023/07/17 03:05:14;;;;;;;5.33;2.23;;;;;;;19.47;91.35;98331.00;5004613;28;20601;-79
2023/07/17 03:07:42;;;;;;;4.33;2.53;;;;;;;19.44;90.73;98335.03;5006614;28;20207;-81
2023/07/17 03:10:10;;;;;;;4.87;2.47;;;;;;;19.43;94.04;98341.50;5005059;28;20230;-79
2023/07/17 03:12:36;;;;;;;3.27;2.50;;;;;;;19.43;93.19;98336.13;5004071;28;20204;-79
2023/07/17 03:15:05;;;;;;;5.27;2.43;;;;;;;19.40;89.74;98339.34;5005129;28;20235;-79
2023/07/17 03:17:32;;;;;;;2.83;2.23;;;;;;;19.38;93.09;98340.69;5005437;28;20207;-79
2023/07/17 03:19:59;;;;;;;4.63;2.50;;;;;;;19.44;93.58;98348.53;5008164;28;20227;-79
2023/07/17 03:22:27;;;;;;;6.43;2.60;;;;;;;19.42;97.08;98358.75;5008573;28;20223;-79
2023/07/17 03:24:54;;;;;;;3.53;2.53;;;;;;;19.47;95.75;98352.56;5008877;28;20701;-79
2023/07/17 03:27:21;;;;;;;3.50;2.23;;;;;;;19.42;95.64;98356.06;5008153;28;20300;-79
2023/07/17 03:29:48;;;;;;;4.40;2.40;;;;;;;19.38;97.72;98360.38;5007355;28;20223;-79
2023/07/17 03:32:14;;;;;;;4.00;2.50;;;;;;;19.39;95.21;98362.00;5007752;28;20215;-79
2023/07/17 03:34:41;;;;;;;2.93;2.20;;;;;;;19.31;96.98;98364.41;5008878;28;20266;-79
2023/07/17 03:37:07;;;;;;;7.00;2.83;;;;;;;19.29;97.30;98362.00;5009173;28;20222;-79
2023/07/17 03:39:34;;;;;;;5.73;2.67;;;;;;;19.33;97.92;98357.69;5009904;28;20221;-79
2023/07/17 03:42:00;;;;;;;6.03;2.37;;;;;;;19.30;96.32;98352.00;5009659;28;20234;-79
2023/07/17 03:44:26;;;;;;;4.27;2.63;;;;;;;19.32;97.18;98349.84;5008767;28;20229;-81
2023/07/17 03:46:53;;;;;;;2.90;2.50;;;;;;;19.37;96.87;98357.94;5008571;28;20211;-79
2023/07/17 03:49:19;;;;;;;5.30;2.50;;;;;;;19.30;99.70;98360.09;5008240;28;20241;-79
2023/07/17 03:51:45;;;;;;;4.10;2.60;;;;;;;19.36;97.24;98357.13;5007722;28;20211;-79
2023/07/17 03:54:12;;;;;;;5.13;2.60;;;;;;;19.35;95.88;98362.78;5008539;28;20199;-79
2023/07/17 03:56:39;;;;;;;5.83;2.70;;;;;;;19.33;98.60;98357.69;5007865;28;20290;-79
2023/07/17 03:59:05;;;;;;;4.70;2.63;;;;;;;19.28;97.58;98363.03;5006814;28;20227;-79
2023/07/17 04:01:32;;;;;;;4.57;2.80;;;;;;;19.27;99.73;98364.13;5008564;28;20207;-79
2023/07/17 04:03:58;;;;;;;4.20;2.53;;;;;;;19.22;99.82;98360.56;5007459;28;20229;-79
2023/07/17 04:06:24;;;;;;;4.23;2.30;;;;;;;19.17;98.46;98366.78;5003849;28;20294;-79
2023/07/17 04:08:51;;;;;;;3.97;2.53;;;;;;;19.19;96.07;98363.81;5007339;28;20223;-79
2023/07/17 04:11:18;;;;;;;4.43;2.70;;;;;;;19.11;96.97;98370.53;5008170;28;20561;-79
2023/07/17 04:13:45;;;;;;;4.23;2.60;;;;;;;18.97;97.80;98369.44;5006933;28;20287;-79
2023/07/17 04:16:13;;;;;;;3.47;2.40;;;;;;;18.98;100.00;98378.31;5006967;28;20207;-79
2023/07/17 04:18:40;;;;;;;4.80;2.37;;;;;;;18.91;100.00;98377.75;5008415;28;20634;-81
2023/07/17 04:21:06;;;;;;;4.60;2.53;;;;;;;18.88;100.00;98381.78;5006352;28;20203;-79
2023/07/17 04:23:32;;;;;;;5.47;2.80;;;;;;;18.82;100.00;98382.81;5006427;28;20227;-79
2023/07/17 04:25:59;;;;;;;4.47;2.50;;;;;;;18.86;100.00;98375.84;5007239;28;20276;-79
2023/07/17 04:28:25;;;;;;;3.63;2.30;;;;;;;18.86;100.00;98381.22;5007451;28;20227;-79
2023/07/17 04:30:51;;;;;;;6.77;3.03;;;;;;;18.92;100.00;98382.84;5006207;28;20207;-79
2023/07/17 04:33:18;;;;;;;5.47;2.90;;;;;;;18.97;98.27;98385.59;5005996;28;20239;-79
2023/07/17 04:35:44;;;;;;;4.27;2.60;;;;;;;18.95;100.00;98390.41;5007874;28;20202;-80
2023/07/17 04:38:10;;;;;;;4.13;2.53;;;;;;;18.98;100.00;98395.28;5007435;28;20231;-80
2023/07/17 04:40:37;;;;;;;3.23;2.80;;;;;;;19.00;100.00;98395.81;5005634;28;20238;-80
2023/07/17 04:43:03;;;;;;;6.67;2.90;;;;;;;19.07;100.00;98401.78;5004871;28;20223;-80
2023/07/17 04:45:30;;;;;;;7.50;3.03;;;;;;;19.14;100.00;98399.63;5002068;28;20208;-80
2023/07/17 04:47:56;;;;;;;7.30;3.13;;;;;;;19.19;100.00;98401.56;5002581;28;20231;-80
2023/07/17 04:50:26;;;;;;;10.10;3.93;;;;;;;19.20;100.00;98406.69;5004744;28;20210;-80
2023/07/17 04:52:53;;;;;;;6.20;3.70;;;;;;;19.30;100.00;98400.53;5007302;28;20191;-80
2023/07/17 04:55:21;;;;;;;5.70;3.60;;;;;;;19.36;100.00;98402.97;5007083;28;20203;-81
2023/07/17 04:57:47;;;;;;;5.20;3.80;;;;;;;19.43;100.00;98395.44;5006366;28;20207;-81
2023/07/17 05:00:14;;;;;;;6.87;3.67;;;;;;;19.54;100.00;98396.28;5006834;28;20213;-81
2023/07/17 05:02:41;;;;;;;7.23;3.70;;;;;;;19.63;100.00;98398.16;5006895;28;20227;-81
2023/07/17 05:05:07;;;;;;;8.23;3.40;;;;;;;19.76;98.38;98398.72;5006608;28;20218;-80
2023/07/17 05:07:34;;;;;;;6.37;3.83;;;;;;;19.83;98.62;98393.84;5005848;28;20211;-80
2023/07/17 05:10:00;;;;;;;6.23;3.73;;;;;;;19.83;98.20;98400.06;5006793;28;20223;-80
2023/07/17 05:12:27;;;;;;;7.50;3.63;;;;;;;19.83;97.34;98397.38;5006654;28;20211;-81
2023/07/17 05:14:54;;;;;;;7.63;3.57;;;;;;;19.79;99.28;98396.28;5007500;28;20207;-81
2023/07/17 05:17:20;;;;;;;8.57;3.60;;;;;;;19.79;99.66;98398.97;5007099;28;20210;-81
2023/07/17 05:19:47;;;;;;;6.67;3.60;;;;;;;19.78;100.00;98408.94;5000589;28;20223;-76
2023/07/17 05:22:13;;;;;;;7.27;3.83;;;;;;;20.02;99.52;98408.44;4994281;28;20218;-75
2023/07/17 05:24:40;;;;;;;5.50;3.30;;;;;;;20.18;100.00;98407.38;4994438;28;20263;-75
2023/07/17 05:27:07;;;;;;;5.87;3.60;;;;;;;20.34;99.85;98412.47;4994099;28;20670;-75
2023/07/17 05:29:33;;;;;;;5.20;3.13;;;;;;;20.50;94.45;98405.97;4994216;28;20567;-75
2023/07/17 05:32:00;;;;;;;5.67;3.30;;;;;;;20.55;94.19;98402.44;4994115;28;20269;-75
2023/07/17 05:34:26;;;;;;;6.17;3.40;;;;;;;20.57;91.14;98398.38;4994180;28;20203;-75
2023/07/17 05:36:52;;;;;;;6.83;3.43;;;;;;;20.59;93.17;98408.91;4994865;28;20221;-75
2023/07/17 05:39:19;;;;;;;3.83;2.90;;;;;;;20.55;89.90;98414.06;4994357;28;20227;-75
2023/07/17 05:41:45;;;;;;;4.23;3.13;;;;;;;20.58;92.24;98415.41;4994065;28;20562;-75
2023/07/17 05:44:12;;;;;;;7.87;3.20;;;;;;;20.68;90.57;98407.25;4998763;28;20223;-81
2023/07/17 05:46:38;;;;;;;7.20;3.40;;;;;;;20.72;89.39;98411.84;5006869;28;20211;-81
2023/07/17 05:49:05;;;;;;;7.80;3.53;;;;;;;20.62;87.67;98413.78;5005322;28;20775;-80
2023/07/17 05:51:32;;;;;;;5.23;3.53;;;;;;;20.54;87.93;98409.75;5006584;28;20211;-80
2023/07/17 05:53:58;;;;;;;5.80;3.43;;;;;;;20.56;89.78;98414.84;5007093;28;20203;-80
2023/07/17 05:56:25;;;;;;;8.80;3.37;;;;;;;20.73;88.72;98418.06;5007173;28;20279;-81
2023/07/17 05:58:52;;;;;;;7.50;3.27;;;;;;;20.89;85.60;98420.44;5007163;28;20590;-81
2023/07/17 06:01:18;;;;;;;5.93;3.03;;;;;;;20.97;91.02;98416.38;5006618;28;20274;-81
2023/07/17 06:03:44;;;;;;;3.90;2.87;;;;;;;21.12;89.16;98419.03;5006066;28;20234;-81
2023/07/17 06:06:11;;;;;;;4.87;2.83;;;;;;;21.19;82.85;98428.44;5007400;28;20275;-80
2023/07/17 06:08:37;;;;;;;6.13;2.90;;;;;;;21.31;82.92;98436.25;5005960;28;20233;-80
2023/07/17 06:11:03;;;;;;;4.73;2.80;;;;;;;21.36;81.64;98436.22;5007053;28;20211;-80
2023/07/17 06:13:30;;;;;;;5.07;2.83;;;;;;;21.42;84.26;98438.59;5007111;28;20643;-80
2023/07/17 06:15:56;;;;;;;6.30;2.60;;;;;;;21.45;78.03;98442.66;5006893;28;20211;-80
2023/07/17 06:18:22;;;;;;;4.37;2.97;;;;;;;21.49;76.40;98444.53;5006985;28;20241;-80
2023/07/17 06:20:49;;;;;;;4.63;2.70;;;;;;;21.63;76.88;98450.13;5006819;28;20206;-80
2023/07/17 06:23:15;;;;;;;5.93;3.13;;;;;;;21.61;77.02;98450.41;5002392;28;20222;-80
2023/07/17 06:25:42;;;;;;;10.18;3.20;;;;;;;21.70;78.26;98442.53;5005718;28;20234;-80
2023/07/17 06:28:09;;;;;;;4.55;2.95;;;;;;;21.63;75.05;98444.72;5004494;28;20226;-80
2023/07/17 06:30:35;;;;;;;3.17;2.63;;;;;;;21.76;76.34;98442.22;5008578;28;20271;-80
2023/07/17 06:33:02;;;;;;;6.47;2.90;;;;;;;21.83;73.87;98437.28;5008422;28;20298;-81
2023/07/17 06:35:28;;;;;;;5.63;3.03;;;;;;;22.00;74.83;98443.13;5008125;28;20230;-81
2023/07/17 06:37:55;;;;;;;5.35;2.60;;;;;;;21.97;73.03;98446.41;5007951;28;20282;-81
2023/07/17 06:40:21;;;;;;;7.70;3.07;;;;;;;22.05;73.48;98451.22;5007385;28;20217;-80
2023/07/17 06:42:48;;;;;;;5.65;2.90;;;;;;;21.94;71.75;98451.56;5007075;28;20203;-80
2023/07/17 06:45:14;;;;;;;7.47;3.13;;;;;;;21.96;72.44;98452.09;5007364;28;20227;-80
2023/07/17 06:47:41;;;;;;;5.67;2.97;;;;;;;21.93;71.26;98458.09;5006760;28;20274;-80
2023/07/17 06:50:08;;;;;;;4.83;3.10;;;;;;;22.06;73.10;98455.53;5008451;28;20254;-80
2023/07/17 06:52:37;;;;;;;6.57;2.72;;;;;;;22.02;70.03;98449.06;5009010;28;20262;-80
2023/07/17 06:55:05;;;;;;;7.10;2.92;;;;;;;22.06;69.29;98450.13;4997126;28;20208;-75
2023/07/17 06:57:31;;;;;;;5.90;3.10;;;;;;;22.22;68.73;98450.81;4996953;28;20667;-74
2023/07/17 06:59:57;;;;;;;4.63;3.17;;;;;;;22.19;68.95;98444.06;4996960;28;20223;-74
2023/07/17 07:02:24;;;;;;;3.63;2.88;;;;;;;22.28;68.62;98447.78;4997172;28;20215;-74
2023/07/17 07:04:50;;;;;;;6.28;3.30;;;;;;;22.28;68.57;98449.66;4997236;28;20223;-74
2023/07/17 07:07:16;;;;;;;4.93;3.10;;;;;;;22.37;68.06;98453.38;4997147;28;20208;-74
2023/07/17 07:09:43;;;;;;;4.72;3.47;;;;;;;22.53;64.21;98452.19;4997238;28;20227;-74
2023/07/17 07:12:09;;;;;;;5.07;3.60;;;;;;;22.45;60.72;98450.06;4997515;28;20218;-74
2023/07/17 07:14:36;;;;;;;7.25;4.28;;;;;;;22.52;62.41;98447.84;4997137;28;20203;-74
2023/07/17 07:17:02;;;;;;;7.35;3.67;;;;;;;22.70;62.15;98436.28;4996688;28;20207;-74
2023/07/17 07:19:28;;;;;;;7.55;4.35;;;;;;;22.69;59.35;98445.50;4996480;28;20237;-74
2023/07/17 07:21:55;;;;;;;4.05;3.45;;;;;;;22.65;61.42;98444.47;4996829;28;20572;-74
2023/07/17 07:24:21;;;;;;;7.25;4.68;;;;;;;22.79;60.07;98450.84;4996572;28;20562;-74
2023/07/17 07:26:47;;;;;;;6.35;4.10;;;;;;;22.75;57.64;98444.38;4996454;28;20693;-74
2023/07/17 07:29:14;;;;;;;8.20;3.85;;;;;;;22.83;60.03;98446.44;4996654;28;20231;-74
2023/07/17 07:31:40;;;;;;;7.88;4.82;;;;;;;22.81;59.47;98445.91;4996939;28;20203;-74
2023/07/17 07:34:06;;;;;;;6.47;3.88;;;;;;;22.79;59.69;98445.41;4996681;28;20210;-75
2023/07/17 07:36:33;;;;;;;5.88;3.70;;;;;;;22.98;60.15;98446.28;4996382;28;20256;-75
2023/07/17 07:38:59;;;;;;;5.18;3.45;;;;;;;22.90;57.06;98444.19;4996549;28;20231;-74
2023/07/17 07:41:25;;;;;;;6.93;3.83;;;;;;;23.02;53.12;98450.03;4996604;28;20218;-74
2023/07/17 07:43:52;;;;;;;7.75;4.13;;;;;;;23.17;50.80;98456.06;4996416;28;20223;-74
2023/07/17 07:46:18;;;;;;;5.75;4.55;;;;;;;23.00;47.21;98449.50;4996294;28;20218;-74
2023/07/17 07:48:44;;;;;;;6.43;4.03;;;;;;;23.02;52.54;98455.44;4995824;28;20258;-74
2023/07/17 07:51:11;;;;;;;4.65;4.03;;;;;;;23.07;51.75;98458.09;4996097;28;20692;-74
2023/07/17 07:53:37;;;;;;;7.35;3.92;;;;;;;23.04;53.65;98453.25;4995861;28;20511;-74
2023/07/17 07:56:04;;;;;;;7.43;4.05;;;;;;;23.27;50.99;98449.72;4996051;28;20211;-75
2023/07/17 07:58:30;;;;;;;6.10;4.35;;;;;;;23.11;53.41;98456.44;4995975;28;20223;-74
2023/07/17 08:00:56;;;;;;;7.65;3.83;;;;;;;23.19;54.18;98456.63;4996453;28;20211;-74
2023/07/17 08:03:23;;;;;;;7.97;4.10;;;;;;;23.36;52.96;98458.84;4996117;28;20211;-74
2023/07/17 08:05:49;;;;;;;7.97;4.38;;;;;;;23.41;52.45;98453.34;4994838;28;20210;-74
2023/07/17 08:08:15;;;;;;;7.15;4.18;;;;;;;23.48;51.30;98453.81;4996045;28;20230;-74
2023/07/17 08:10:42;;;;;;;7.68;4.20;;;;;;;23.60;52.20;98462.34;4996006;28;20236;-74
2023/07/17 08:13:08;;;;;;;4.65;3.90;;;;;;;23.64;48.75;98464.16;4995748;28;20222;-74
2023/07/17 08:15:34;;;;;;;8.57;3.97;;;;;;;23.69;46.37;98455.94;4995684;28;20314;-74
2023/07/17 08:18:01;;;;;;;7.68;3.83;;;;;;;23.58;47.65;98461.81;4996665;28;20211;-74
2023/07/17 08:20:29;;;;;;;6.57;4.28;;;;;;;23.69;47.53;98460.59;4995167;28;20222;-73
2023/07/17 08:22:55;;;;;;;6.13;3.97;;;;;;;23.95;47.16;98459.13;4995727;28;20226;-74
2023/07/17 08:25:23;;;;;;;5.32;3.88;;;;;;;23.96;47.47;98466.97;4995122;28;20231;-73
2023/07/17 08:27:49;;;;;;;4.53;3.40;;;;;;;23.81;46.91;98458.22;4995184;28;20261;-74
2023/07/17 08:30:16;;;;;;;5.47;3.97;;;;;;;23.91;47.42;98464.34;4995915;28;20539;-74
2023/07/17 08:32:42;;;;;;;5.30;3.95;;;;;;;24.08;47.03;98455.66;4995307;28;20208;-73
2023/07/17 08:35:10;;;;;;;8.02;4.07;;;;;;;24.16;47.98;98463.91;4995094;28;20203;-74
2023/07/17 08:37:36;;;;;;;7.47;4.28;;;;;;;24.30;46.34;98456.66;4995333;28;20211;-73
2023/07/17 08:40:03;;;;;;;5.45;3.45;;;;;;;24.51;44.11;98454.38;4995040;28;20230;-74
2023/07/17 08:42:30;;;;;;;5.80;3.75;;;;;;;24.60;44.87;98456.13;4994731;28;20207;-74
2023/07/17 08:44:57;;;;;;;8.75;3.97;;;;;;;24.56;43.33;98454.31;4995221;28;20227;-73
2023/07/17 08:47:24;;;;;;;5.15;3.47;;;;;;;24.33;44.29;98452.53;4995205;28;20573;-74
2023/07/17 08:49:52;;;;;;;4.05;3.63;;;;;;;24.55;44.05;98458.09;4994843;28;20293;-74
2023/07/17 08:52:19;;;;;;;6.25;4.20;;;;;;;24.37;42.98;98467.16;4994629;28;20693;-73
2023/07/17 08:54:45;;;;;;;4.68;3.88;;;;;;;24.44;44.51;98472.97;4994987;28;20214;-76
2023/07/17 08:57:13;;;;;;;7.50;3.55;;;;;;;24.44;44.41;98473.81;4995072;28;20203;-74
2023/07/17 08:59:40;;;;;;;5.82;3.72;;;;;;;24.55;47.00;98474.41;4994896;28;20227;-74
2023/07/17 09:02:06;;;;;;;5.13;3.90;;;;;;;24.41;43.38;98468.13;4994990;28;20214;-74
2023/07/17 09:04:34;;;;;;;4.47;3.47;;;;;;;24.06;45.14;98474.97;4994655;28;20277;-74
2023/07/17 09:07:00;;;;;;;6.60;3.90;;;;;;;23.94;46.92;98469.19;4994853;28;20207;-74
2023/07/17 09:09:27;;;;;;;4.72;3.70;;;;;;;24.08;46.55;98480.09;4994596;28;20714;-74
2023/07/17 09:12:16;;;;;;;7.35;3.92;;;;;;;24.23;48.07;98469.81;4994861;28;20204;-74
2023/07/17 09:14:42;;;;;;;8.35;3.90;;;;;;;24.36;45.94;98479.09;4995024;28;20188;-74
2023/07/17 09:17:11;;;;;;;7.97;4.10;;;;;;;24.17;45.58;98468.28;4994484;28;20203;-74
2023/07/17 09:19:38;;;;;;;4.82;3.80;;;;;;;24.16;47.01;98468.56;4994444;28;20293;-74
2023/07/17 09:22:06;;;;;;;8.77;7.35;;;;;;;24.12;47.98;98473.78;4994384;28;20693;-74
2023/07/17 09:24:34;;;;;;;5.85;3.83;;;;;;;23.98;46.21;98469.41;4994565;28;20227;-74
2023/07/17 09:27:01;;;;;;;5.13;4.30;;;;;;;24.20;44.37;98467.66;4994379;28;20203;-74
2023/07/17 09:29:27;;;;;;;4.22;3.53;;;;;;;24.51;46.64;98468.00;4994132;28;20227;-74
2023/07/17 09:31:54;;;;;;;7.43;4.00;;;;;;;24.94;45.57;98462.03;4994560;28;20238;-74
2023/07/17 09:34:20;;;;;;;6.57;4.38;;;;;;;25.02;47.63;98457.81;4994076;28;20199;-74
2023/07/17 09:36:50;;;;;;;5.13;3.47;;;;;;;25.02;44.39;98460.53;4993704;28;20218;-74
2023/07/17 09:39:17;;;;;;;6.35;4.10;;;;;;;25.04;45.31;98456.38;4994155;28;20227;-74
2023/07/17 09:41:43;;;;;;;5.43;4.10;;;;;;;24.99;45.20;98458.41;4993735;28;20219;-73
2023/07/17 09:44:10;;;;;;;4.85;4.07;;;;;;;24.84;44.18;98455.97;4993930;28;20614;-74
2023/07/17 09:46:39;;;;;;;5.40;3.70;;;;;;;25.05;44.44;98459.94;4994196;28;20298;-73
2023/07/17 09:49:06;;;;;;;5.43;4.55;;;;;;;24.87;44.46;98463.53;4993910;28;20250;-73
2023/07/17 09:51:33;;;;;;;5.68;4.03;;;;;;;24.68;44.71;98458.19;4993961;28;20693;-74
2023/07/17 09:53:59;;;;;;;5.13;4.10;;;;;;;24.81;46.55;98451.94;4993992;28;20207;-74
2023/07/17 09:56:30;;;;;;;5.35;4.13;;;;;;;24.92;45.16;98452.56;4994412;28;20230;-74
2023/07/17 09:59:18;;;;;;;5.15;3.95;;;;;;;25.13;46.04;98460.03;4994021;28;20223;-74
2023/07/17 10:01:47;;;;;;;4.78;3.65;;;;;;;25.37;45.12;98457.13;4994257;28;20211;-74
2023/07/17 10:04:43;;;;;;;4.40;3.53;;;;;;;25.38;44.25;98464.16;4993613;28;20602;-74
2023/07/17 10:07:12;;;;;;;4.93;3.65;;;;;;;25.31;43.68;98461.84;4990314;28;20218;-74
2023/07/17 10:09:41;;;;;;;4.93;4.32;;;;;;;25.39;44.78;98460.34;4993571;28;20648;-74
2023/07/17 10:12:09;;;;;;;6.57;3.78;;;;;;;25.31;44.86;98452.88;4993793;28;20213;-74
2023/07/17 10:14:36;;;;;;;7.32;4.60;;;;;;;25.25;44.24;98457.59;4993716;28;20230;-74
2023/07/17 10:17:03;;;;;;;5.63;4.20;;;;;;;24.79;44.30;98458.78;4993506;28;20551;-75
2023/07/17 10:19:45;;;;;;;6.68;3.90;;;;;;;24.71;45.19;98463.03;4993329;28;20314;-74
2023/07/17 10:22:15;;;;;;;5.40;4.22;;;;;;;24.71;46.94;98456.75;4993851;28;20572;-74
2023/07/17 10:24:42;;;;;;;5.55;4.38;;;;;;;24.94;46.70;98451.16;4993358;28;20222;-74
2023/07/17 10:27:09;;;;;;;5.25;4.07;;;;;;;24.73;44.12;98455.34;4993505;28;20701;-74
2023/07/17 10:29:42;;;;;;;5.50;4.05;;;;;;;24.83;45.65;98443.50;4994950;28;20278;-74
2023/07/17 10:32:14;;;;;;;4.82;3.83;;;;;;;24.91;42.59;98440.03;4997666;28;20226;-74
2023/07/17 10:34:49;;;;;;;5.13;4.57;;;;;;;24.81;42.66;98437.53;4997715;28;20203;-74
2023/07/17 10:37:31;;;;;;;6.32;4.30;;;;;;;24.67;44.29;98436.72;4997717;28;20281;-74
2023/07/17 10:40:08;;;;;;;5.55;3.83;;;;;;;24.73;44.40;98438.22;4997551;28;20234;-74
2023/07/17 10:42:35;;;;;;;6.68;4.60;;;;;;;24.60;47.28;98442.53;4997122;28;20192;-74
2023/07/17 10:45:09;;;;;;;11.25;7.82;;;;;;;24.48;47.96;98430.50;4997360;28;20231;-74
2023/07/17 10:47:35;;;;;;;5.47;4.13;;;;;;;24.47;45.98;98435.13;4997456;28;20693;-74
2023/07/17 10:50:05;;;;;;;9.20;4.43;;;;;;;24.37;47.97;98435.31;4997425;28;20239;-74
2023/07/17 10:52:35;;;;;;;4.80;4.28;;;;;;;24.33;49.28;98434.31;4996902;28;20686;-74
2023/07/17 10:55:04;;;;;;;5.78;4.10;;;;;;;24.62;44.32;98415.88;4997318;28;20207;-74
2023/07/17 10:57:31;;;;;;;5.50;4.00;;;;;;;24.47;46.19;98421.53;4997356;28;20265;-74
2023/07/17 10:59:58;;;;;;;5.43;3.90;;;;;;;24.58;45.95;98419.44;4997004;28;20223;-74
2023/07/17 11:02:27;;;;;;;6.60;4.20;;;;;;;24.81;43.85;98421.22;4997300;28;20303;-74
2023/07/17 11:05:01;;;;;;;7.13;4.55;;;;;;;25.02;43.96;98422.44;4997079;28;20281;-74
2023/07/17 11:07:29;;;;;;;6.15;4.15;;;;;;;25.41;44.01;98419.97;4996851;28;20228;-74
2023/07/17 11:09:55;;;;;;;5.50;4.45;;;;;;;25.60;44.32;98432.34;4997018;28;20234;-74
2023/07/17 11:12:26;;;;;;;6.13;4.93;;;;;;;25.55;45.13;98421.56;4997086;28;20204;-74
2023/07/17 11:14:53;;;;;;;6.88;4.30;;;;;;;25.69;47.58;98414.16;4996957;28;20199;-74
2023/07/17 11:17:19;;;;;;;5.68;4.25;;;;;;;25.36;43.57;98417.38;4996871;28;20215;-74
2023/07/17 11:19:45;;;;;;;6.50;4.70;;;;;;;25.53;46.06;98431.16;4996825;28;20258;-74
2023/07/17 11:22:13;;;;;;;5.35;4.40;;;;;;;25.49;43.96;98424.72;4996792;28;20207;-74
2023/07/17 11:24:39;;;;;;;4.68;4.13;;;;;;;25.38;42.50;98421.41;4996648;28;20250;-74
2023/07/17 11:27:07;;;;;;;4.53;3.88;;;;;;;25.37;43.29;98417.06;4996579;28;20691;-74
2023/07/17 11:29:41;;;;;;;6.05;3.95;;;;;;;25.36;41.70;98420.09;4996522;28;20234;-74
2023/07/17 11:32:07;;;;;;;4.70;4.15;;;;;;;25.49;44.79;98413.81;4996616;28;20211;-74